Decoded Metar for UUYY (SYKTYVKAR in RUSSIA) (IATA:SCW) | Meteo·Mobile Aviation Weather
aviador You're here:

UUYY Decoded Metar

SYKTYVKAR in RUSSIA
Report Time2019-05-19 18:30:00
UTC Time2019-05-19 18:58:33
Flight Rules vfr VFR
Wind310° at 6 kt
W.Decomp.*RWY 01: 1.5 kt HW 5.8 kt LCW
Visibility9999 m
Phenomena:N/A
Clouds:Few CB 040 Hf
Expected CloudBase > 1,200 ft AGL from Temp-Dew spread
CeilingNone
Temp05°C (ISA -9)
Dew Point02°C (81% RH)
AAT1.2°C
QNH1012 hPa
Density Alt-594 ft
Elevation390 ft
Report Wrong Elevation
Raw Report
METAR UUYY 191830Z 31003MPS 9999 FEW040CB 05/02 Q1012 R36/29//51 NOSIG
RMK QFE750/1000=

Extra information for UUYY:More info

Metar Taf Metar & Taf Last 4 Metars F.Rules Stats Wind Profile Meteogram Temp Stats Airport Information Weather charts Add Link Nearby VenuesMetar ALERT Operation Metar Decoded Social comments